Time,TemperatureF,DewpointF,PressureIn,WindDirection,WindDirectionDegrees,WindSpeedMPH,WindSpeedGustMPH,Humidity,HourlyPrecipIn,Conditions,Clouds,dailyrainin,SolarRadiationWatts/m^2,SoftwareType,DateUTC
2013-05-03 00:06:00,23.8,9.0,30.39,NNW,338,0.0,0.0,54,0.00,,,0.00,0,weatherlink.com 1.10,2013-05-03 06:06:00,
2013-05-03 00:21:00,24.3,9.0,30.39,NNW,338,0.0,0.0,52,0.00,,,0.00,0,weatherlink.com 1.10,2013-05-03 06:21:00,
2013-05-03 00:36:00,25.8,9.0,30.39,NNW,340,1.0,1.0,49,0.00,,,0.00,0,weatherlink.com 1.10,2013-05-03 06:36:00,
2013-05-03 00:51:00,26.4,9.0,30.38,NNW,342,0.0,1.0,48,0.00,,,0.00,0,weatherlink.com 1.10,2013-05-03 06:51:00,
2013-05-03 01:06:00,25.1,9.0,30.38,NNW,342,0.0,0.0,51,0.00,,,0.00,0,weatherlink.com 1.10,2013-05-03 07:06:00,
2013-05-03 01:21:00,24.6,9.0,30.38,NNW,342,0.0,1.0,51,0.00,,,0.00,0,weatherlink.com 1.10,2013-05-03 07:21:00,
2013-05-03 01:36:00,23.8,9.0,30.37,NNW,331,0.0,0.0,53,0.00,,,0.00,0,weatherlink.com 1.10,2013-05-03 07:36:00,
2013-05-03 01:51:00,24.8,9.0,30.36,NNW,331,0.0,0.0,52,0.00,,,0.00,0,weatherlink.com 1.10,2013-05-03 07:51:00,
2013-05-03 02:06:00,24.8,9.0,30.36,NNW,333,0.0,0.0,51,0.00,,,0.00,0,weatherlink.com 1.10,2013-05-03 08:06:00,
2013-05-03 02:21:00,24.6,10.0,30.35,NNW,335,0.0,0.0,53,0.00,,,0.00,0,weatherlink.com 1.10,2013-05-03 08:21:00,
2013-05-03 02:36:00,24.9,10.0,30.35,NNW,335,0.0,0.0,53,0.00,,,0.00,0,weatherlink.com 1.10,2013-05-03 08:36:00,
2013-05-03 02:51:00,24.7,10.0,30.34,NNW,335,0.0,1.0,53,0.00,,,0.00,0,weatherlink.com 1.10,2013-05-03 08:51:00,
2013-05-03 03:06:00,24.9,10.0,30.34,NNW,335,0.0,0.0,53,0.00,,,0.00,0,weatherlink.com 1.10,2013-05-03 09:06:00,
2013-05-03 03:21:00,24.3,10.0,30.34,NNW,341,0.0,0.0,54,0.00,,,0.00,0,weatherlink.com 1.10,2013-05-03 09:21:00,
2013-05-03 03:36:00,23.3,10.0,30.33,NNW,341,0.0,0.0,56,0.00,,,0.00,0,weatherlink.com 1.10,2013-05-03 09:36:00,
2013-05-03 03:51:00,24.0,10.0,30.33,South,180,0.0,3.0,55,0.00,,,0.00,0,weatherlink.com 1.10,2013-05-03 09:51:00,
2013-05-03 04:06:00,23.1,10.0,30.33,South,180,0.0,2.0,57,0.00,,,0.00,0,weatherlink.com 1.10,2013-05-03 10:06:00,
2013-05-03 04:21:00,22.5,10.0,30.33,South,175,0.0,0.0,58,0.00,,,0.00,0,weatherlink.com 1.10,2013-05-03 10:21:00,
2013-05-03 04:36:00,22.1,10.0,30.32,South,175,0.0,0.0,59,0.00,,,0.00,0,weatherlink.com 1.10,2013-05-03 10:36:00,
2013-05-03 04:51:00,21.9,9.0,30.32,South,175,0.0,0.0,59,0.00,,,0.00,0,weatherlink.com 1.10,2013-05-03 10:51:00,
2013-05-03 05:06:00,22.1,10.0,30.32,South,175,0.0,0.0,60,0.00,,,0.00,0,weatherlink.com 1.10,2013-05-03 11:06:00,
2013-05-03 05:21:00,21.6,10.0,30.32,South,175,0.0,0.0,60,0.00,,,0.00,0,weatherlink.com 1.10,2013-05-03 11:21:00,
2013-05-03 05:36:00,21.5,10.0,30.32,South,175,0.0,0.0,61,0.00,,,0.00,0,weatherlink.com 1.10,2013-05-03 11:36:00,
2013-05-03 05:51:00,21.6,10.0,30.32,South,175,0.0,0.0,61,0.00,,,0.00,0,weatherlink.com 1.10,2013-05-03 11:51:00,
2013-05-03 06:06:00,21.6,10.0,30.32,South,175,0.0,0.0,60,0.00,,,0.00,0,weatherlink.com 1.10,2013-05-03 12:06:00,
2013-05-03 06:21:00,22.6,10.0,30.31,South,171,0.0,0.0,58,0.00,,,0.00,9,weatherlink.com 1.10,2013-05-03 12:21:00,
2013-05-03 06:36:00,21.7,10.0,30.30,South,171,0.0,0.0,61,0.00,,,0.00,14,weatherlink.com 1.10,2013-05-03 12:36:00,
2013-05-03 06:51:00,21.9,10.0,30.31,South,171,0.0,0.0,60,0.00,,,0.00,16,weatherlink.com 1.10,2013-05-03 12:51:00,
2013-05-03 07:07:00,22.6,10.0,30.30,South,170,0.0,0.0,58,0.00,,,0.00,21,weatherlink.com 1.10,2013-05-03 13:07:00,
2013-05-03 07:22:00,23.2,11.0,30.30,South,170,0.0,0.0,59,0.00,,,0.00,32,weatherlink.com 1.10,2013-05-03 13:22:00,
2013-05-03 07:37:00,25.0,11.0,30.30,South,173,0.0,0.0,55,0.00,,,0.00,35,weatherlink.com 1.10,2013-05-03 13:37:00,
2013-05-03 07:52:00,25.9,12.0,30.29,South,171,0.0,0.0,55,0.00,,,0.00,39,weatherlink.com 1.10,2013-05-03 13:52:00,
2013-05-03 08:07:00,26.8,12.0,30.28,South,171,0.0,0.0,53,0.00,,,0.00,47,weatherlink.com 1.10,2013-05-03 14:07:00,
2013-05-03 08:22:00,28.4,11.0,30.28,SW,222,0.0,0.0,49,0.00,,,0.00,134,weatherlink.com 1.10,2013-05-03 14:22:00,
2013-05-03 08:37:00,30.1,11.0,30.27,North,360,0.0,0.0,46,0.00,,,0.00,446,weatherlink.com 1.10,2013-05-03 14:37:00,
2013-05-03 08:52:00,31.9,11.0,30.27,North,360,0.0,2.0,42,0.00,,,0.00,499,weatherlink.com 1.10,2013-05-03 14:52:00,
2013-05-03 09:07:00,33.6,11.0,30.26,SW,217,0.0,2.0,39,0.00,,,0.00,554,weatherlink.com 1.10,2013-05-03 15:07:00,
2013-05-03 09:22:00,35.1,9.0,30.25,SW,229,0.0,4.0,34,0.00,,,0.00,601,weatherlink.com 1.10,2013-05-03 15:22:00,
2013-05-03 09:37:00,36.8,9.0,30.25,WSW,255,0.0,2.0,31,0.00,,,0.00,649,weatherlink.com 1.10,2013-05-03 15:37:00,
2013-05-03 09:52:00,38.9,8.0,30.24,West,265,2.0,3.0,28,0.00,,,0.00,700,weatherlink.com 1.10,2013-05-03 15:52:00,
2013-05-03 10:07:00,40.7,7.0,30.23,NW,315,0.0,3.0,25,0.00,,,0.00,744,weatherlink.com 1.10,2013-05-03 16:07:00,
2013-05-03 10:22:00,42.8,7.0,30.23,WNW,298,0.0,2.0,23,0.00,,,0.00,786,weatherlink.com 1.10,2013-05-03 16:22:00,
2013-05-03 10:37:00,44.2,7.0,30.22,SE,143,2.0,5.0,22,0.00,,,0.00,826,weatherlink.com 1.10,2013-05-03 16:37:00,
2013-05-03 10:53:00,43.8,9.0,30.21,SSW,205,1.0,6.0,24,0.00,,,0.00,858,weatherlink.com 1.10,2013-05-03 16:53:00,
2013-05-03 11:08:00,45.1,8.0,30.20,West,272,2.0,5.0,22,0.00,,,0.00,895,weatherlink.com 1.10,2013-05-03 17:08:00,
2013-05-03 11:23:00,47.4,12.0,30.19,West,261,1.0,5.0,24,0.00,,,0.00,928,weatherlink.com 1.10,2013-05-03 17:23:00,
2013-05-03 11:38:00,48.4,10.0,30.18,WNW,300,2.0,5.0,21,0.00,,,0.00,949,weatherlink.com 1.10,2013-05-03 17:38:00,
2013-05-03 11:53:00,47.3,7.0,30.16,SW,219,2.0,4.0,19,0.00,,,0.00,974,weatherlink.com 1.10,2013-05-03 17:53:00,
2013-05-03 12:08:00,50.0,7.0,30.16,WSW,242,2.0,8.0,17,0.00,,,0.00,993,weatherlink.com 1.10,2013-05-03 18:08:00,
2013-05-03 12:23:00,50.0,7.0,30.15,West,272,2.0,5.0,17,0.00,,,0.00,1007,weatherlink.com 1.10,2013-05-03 18:23:00,
2013-05-03 12:38:00,53.5,9.0,30.14,West,273,3.0,5.0,17,0.00,,,0.00,1020,weatherlink.com 1.10,2013-05-03 18:38:00,
2013-05-03 12:53:00,52.3,7.0,30.13,West,263,1.0,7.0,16,0.00,,,0.00,1027,weatherlink.com 1.10,2013-05-03 18:53:00,
2013-05-03 13:08:00,52.6,7.0,30.13,West,271,3.0,7.0,16,0.00,,,0.00,1032,weatherlink.com 1.10,2013-05-03 19:08:00,
2013-05-03 13:23:00,52.6,6.0,30.11,SW,236,2.0,7.0,15,0.00,,,0.00,1028,weatherlink.com 1.10,2013-05-03 19:23:00,
2013-05-03 13:38:00,53.4,8.0,30.10,WNW,282,3.0,7.0,16,0.00,,,0.00,1027,weatherlink.com 1.10,2013-05-03 19:38:00,
2013-05-03 13:53:00,54.1,6.0,30.09,West,261,5.0,8.0,14,0.00,,,0.00,1014,weatherlink.com 1.10,2013-05-03 19:53:00,
2013-05-03 14:08:00,53.6,5.0,30.09,SW,223,2.0,7.0,14,0.00,,,0.00,1005,weatherlink.com 1.10,2013-05-03 20:08:00,
2013-05-03 14:23:00,57.2,7.0,30.08,West,271,1.0,5.0,13,0.00,,,0.00,991,weatherlink.com 1.10,2013-05-03 20:23:00,
2013-05-03 14:38:00,55.2,7.0,30.07,WSW,257,2.0,8.0,14,0.00,,,0.00,969,weatherlink.com 1.10,2013-05-03 20:38:00,
2013-05-03 14:53:00,57.7,10.0,30.06,West,279,1.0,5.0,15,0.00,,,0.00,947,weatherlink.com 1.10,2013-05-03 20:53:00,
2013-05-03 15:08:00,57.0,6.0,30.05,NW,308,2.0,6.0,13,0.00,,,0.00,914,weatherlink.com 1.10,2013-05-03 21:08:00,
2013-05-03 15:23:00,56.4,12.0,30.04,WNW,289,1.0,5.0,17,0.00,,,0.00,884,weatherlink.com 1.10,2013-05-03 21:23:00,
2013-05-03 15:38:00,56.5,9.0,30.03,West,266,3.0,5.0,15,0.00,,,0.00,854,weatherlink.com 1.10,2013-05-03 21:38:00,
2013-05-03 15:53:00,58.3,7.0,30.02,WNW,293,1.0,8.0,13,0.00,,,0.00,796,weatherlink.com 1.10,2013-05-03 21:53:00,
2013-05-03 16:09:00,57.3,7.0,30.01,West,259,2.0,7.0,13,0.00,,,0.00,803,weatherlink.com 1.10,2013-05-03 22:09:00,
2013-05-03 16:24:00,58.1,7.0,30.00,WNW,287,4.0,6.0,13,0.00,,,0.00,759,weatherlink.com 1.10,2013-05-03 22:24:00,
2013-05-03 16:39:00,58.0,9.0,29.99,West,267,2.0,6.0,14,0.00,,,0.00,568,weatherlink.com 1.10,2013-05-03 22:39:00,
2013-05-03 16:54:00,56.2,9.0,29.99,WNW,295,2.0,9.0,15,0.00,,,0.00,462,weatherlink.com 1.10,2013-05-03 22:54:00,
2013-05-03 17:09:00,56.8,9.0,29.99,WNW,303,3.0,5.0,15,0.00,,,0.00,455,weatherlink.com 1.10,2013-05-03 23:09:00,
2013-05-03 17:24:00,54.8,8.0,29.99,SW,236,1.0,5.0,15,0.00,,,0.00,392,weatherlink.com 1.10,2013-05-03 23:24:00,
2013-05-03 17:39:00,53.5,8.0,29.99,West,275,3.0,6.0,16,0.00,,,0.00,239,weatherlink.com 1.10,2013-05-03 23:39:00,
2013-05-03 17:54:00,53.1,8.0,29.99,WSW,256,2.0,5.0,16,0.00,,,0.00,232,weatherlink.com 1.10,2013-05-03 23:54:00,
2013-05-03 18:09:00,52.6,9.0,29.98,WNW,294,2.0,4.0,17,0.00,,,0.00,339,weatherlink.com 1.10,2013-05-04 00:09:00,
2013-05-03 18:24:00,52.0,7.0,29.98,WNW,291,2.0,6.0,16,0.00,,,0.00,334,weatherlink.com 1.10,2013-05-04 00:24:00,
2013-05-03 18:39:00,52.4,6.0,29.98,WNW,297,1.0,5.0,15,0.00,,,0.00,53,weatherlink.com 1.10,2013-05-04 00:39:00,
2013-05-03 18:54:00,51.8,8.0,29.98,West,281,0.0,3.0,17,0.00,,,0.00,46,weatherlink.com 1.10,2013-05-04 00:54:00,
2013-05-03 19:09:00,50.1,9.0,29.98,North,5,0.0,2.0,19,0.00,,,0.00,35,weatherlink.com 1.10,2013-05-04 01:09:00,
2013-05-03 19:24:00,48.3,10.0,29.97,NNE,22,1.0,3.0,21,0.00,,,0.00,26,weatherlink.com 1.10,2013-05-04 01:24:00,
2013-05-03 19:39:00,46.3,9.0,29.97,North,360,1.0,4.0,22,0.00,,,0.00,14,weatherlink.com 1.10,2013-05-04 01:39:00,
2013-05-03 19:54:00,44.5,10.0,29.98,North,360,0.0,2.0,24,0.00,,,0.00,0,weatherlink.com 1.10,2013-05-04 01:54:00,
2013-05-03 20:09:00,43.3,9.0,29.98,North,360,0.0,3.0,24,0.00,,,0.00,0,weatherlink.com 1.10,2013-05-04 02:09:00,
2013-05-03 20:24:00,43.7,9.0,29.98,North,360,1.0,5.0,24,0.00,,,0.00,0,weatherlink.com 1.10,2013-05-04 02:24:00,
2013-05-03 20:39:00,43.1,8.0,29.99,North,360,0.0,3.0,24,0.00,,,0.00,0,weatherlink.com 1.10,2013-05-04 02:39:00,
2013-05-03 20:54:00,40.7,9.0,30.00,North,360,0.0,1.0,27,0.00,,,0.00,0,weatherlink.com 1.10,2013-05-04 02:54:00,
2013-05-03 21:09:00,39.2,8.0,30.00,North,360,0.0,1.0,28,0.00,,,0.00,0,weatherlink.com 1.10,2013-05-04 03:09:00,
2013-05-03 21:24:00,38.1,8.0,30.00,North,360,0.0,0.0,29,0.00,,,0.00,0,weatherlink.com 1.10,2013-05-04 03:24:00,
2013-05-03 21:39:00,37.0,9.0,30.00,North,360,0.0,1.0,31,0.00,,,0.00,0,weatherlink.com 1.10,2013-05-04 03:39:00,
2013-05-03 21:54:00,36.6,8.0,30.01,North,360,0.0,0.0,31,0.00,,,0.00,0,weatherlink.com 1.10,2013-05-04 03:54:00,
2013-05-03 22:09:00,36.2,8.0,30.01,North,360,0.0,2.0,31,0.00,,,0.00,0,weatherlink.com 1.10,2013-05-04 04:09:00,
2013-05-03 22:24:00,36.0,9.0,30.01,North,360,0.0,2.0,32,0.00,,,0.00,0,weatherlink.com 1.10,2013-05-04 04:24:00,
2013-05-03 22:39:00,36.1,8.0,30.00,North,360,0.0,1.0,31,0.00,,,0.00,0,weatherlink.com 1.10,2013-05-04 04:39:00,
2013-05-03 22:54:00,36.0,8.0,30.00,North,360,2.0,2.0,31,0.00,,,0.00,0,weatherlink.com 1.10,2013-05-04 04:54:00,
2013-05-03 23:09:00,35.5,8.0,30.00,North,360,0.0,1.0,32,0.00,,,0.00,0,weatherlink.com 1.10,2013-05-04 05:09:00,
2013-05-03 23:24:00,35.0,8.0,30.00,North,360,0.0,0.0,33,0.00,,,0.00,0,weatherlink.com 1.10,2013-05-04 05:24:00,
2013-05-03 23:39:00,34.4,9.0,29.99,North,360,0.0,4.0,34,0.00,,,0.00,0,weatherlink.com 1.10,2013-05-04 05:39:00,
2013-05-03 23:54:00,34.1,9.0,29.99,East,91,0.0,1.0,35,0.00,,,0.00,0,weatherlink.com 1.10,2013-05-04 05:54:00,